sensor_id;sensor_type;location;lat;lon;timestamp;P1;durP1;ratioP1;P2;durP2;ratioP2
71116;SDS011;58775;46.992;9.518;2024-01-11T00:00:49;25.20;;;10.00;;
71116;SDS011;58775;46.992;9.518;2024-01-11T00:02:50;30.42;;;11.05;;
71116;SDS011;58775;46.992;9.518;2024-01-11T00:04:50;28.20;;;9.85;;
71116;SDS011;58775;46.992;9.518;2024-01-11T00:06:51;26.80;;;9.43;;
71116;SDS011;58775;46.992;9.518;2024-01-11T00:08:52;29.02;;;9.35;;
71116;SDS011;58775;46.992;9.518;2024-01-11T00:10:54;25.95;;;9.45;;
71116;SDS011;58775;46.992;9.518;2024-01-11T00:12:54;35.73;;;11.03;;
71116;SDS011;58775;46.992;9.518;2024-01-11T00:14:55;26.88;;;8.93;;
71116;SDS011;58775;46.992;9.518;2024-01-11T00:16:56;34.60;;;10.38;;
71116;SDS011;58775;46.992;9.518;2024-01-11T00:18:57;25.67;;;9.48;;
71116;SDS011;58775;46.992;9.518;2024-01-11T00:20:58;22.77;;;8.98;;
71116;SDS011;58775;46.992;9.518;2024-01-11T00:22:58;25.10;;;9.87;;
71116;SDS011;58775;46.992;9.518;2024-01-11T00:24:59;21.52;;;8.25;;
71116;SDS011;58775;46.992;9.518;2024-01-11T00:27:00;26.77;;;10.17;;
71116;SDS011;58775;46.992;9.518;2024-01-11T00:29:01;32.38;;;10.13;;
71116;SDS011;58775;46.992;9.518;2024-01-11T00:31:02;37.08;;;10.07;;
71116;SDS011;58775;46.992;9.518;2024-01-11T00:33:03;24.17;;;8.43;;
71116;SDS011;58775;46.992;9.518;2024-01-11T00:35:04;22.83;;;8.30;;
71116;SDS011;58775;46.992;9.518;2024-01-11T00:37:06;27.38;;;9.27;;
71116;SDS011;58775;46.992;9.518;2024-01-11T00:39:07;23.87;;;8.40;;
71116;SDS011;58775;46.992;9.518;2024-01-11T00:41:07;21.33;;;8.05;;
71116;SDS011;58775;46.992;9.518;2024-01-11T00:43:08;28.90;;;8.03;;
71116;SDS011;58775;46.992;9.518;2024-01-11T00:45:09;27.27;;;9.80;;
71116;SDS011;58775;46.992;9.518;2024-01-11T00:47:09;22.23;;;8.07;;
71116;SDS011;58775;46.992;9.518;2024-01-11T00:49:11;29.08;;;8.90;;
71116;SDS011;58775;46.992;9.518;2024-01-11T00:51:11;26.90;;;7.93;;
71116;SDS011;58775;46.992;9.518;2024-01-11T00:53:12;28.20;;;7.73;;
71116;SDS011;58775;46.992;9.518;2024-01-11T00:55:14;20.70;;;7.63;;
71116;SDS011;58775;46.992;9.518;2024-01-11T00:57:16;24.23;;;8.18;;
71116;SDS011;58775;46.992;9.518;2024-01-11T00:59:17;19.77;;;6.93;;
71116;SDS011;58775;46.992;9.518;2024-01-11T01:01:18;17.67;;;6.68;;
71116;SDS011;58775;46.992;9.518;2024-01-11T01:03:19;20.17;;;7.15;;
71116;SDS011;58775;46.992;9.518;2024-01-11T01:05:20;15.77;;;6.22;;
71116;SDS011;58775;46.992;9.518;2024-01-11T01:07:21;20.42;;;6.35;;
71116;SDS011;58775;46.992;9.518;2024-01-11T01:09:22;15.10;;;5.77;;
71116;SDS011;58775;46.992;9.518;2024-01-11T01:11:23;15.88;;;5.72;;
71116;SDS011;58775;46.992;9.518;2024-01-11T01:13:24;16.83;;;6.13;;
71116;SDS011;58775;46.992;9.518;2024-01-11T01:15:24;16.00;;;5.57;;
71116;SDS011;58775;46.992;9.518;2024-01-11T01:17:25;17.10;;;5.75;;
71116;SDS011;58775;46.992;9.518;2024-01-11T01:19:29;17.57;;;5.80;;
71116;SDS011;58775;46.992;9.518;2024-01-11T01:21:29;14.93;;;5.00;;
71116;SDS011;58775;46.992;9.518;2024-01-11T01:23:30;19.67;;;6.65;;
71116;SDS011;58775;46.992;9.518;2024-01-11T01:25:31;17.90;;;6.50;;
71116;SDS011;58775;46.992;9.518;2024-01-11T01:27:32;23.00;;;7.13;;
71116;SDS011;58775;46.992;9.518;2024-01-11T01:29:33;19.98;;;7.00;;
71116;SDS011;58775;46.992;9.518;2024-01-11T01:31:34;21.45;;;7.50;;
71116;SDS011;58775;46.992;9.518;2024-01-11T01:33:37;19.35;;;6.78;;
71116;SDS011;58775;46.992;9.518;2024-01-11T01:35:40;24.83;;;7.18;;
71116;SDS011;58775;46.992;9.518;2024-01-11T01:37:40;20.63;;;6.50;;
71116;SDS011;58775;46.992;9.518;2024-01-11T01:39:41;24.38;;;7.18;;
71116;SDS011;58775;46.992;9.518;2024-01-11T01:41:42;19.98;;;6.55;;
71116;SDS011;58775;46.992;9.518;2024-01-11T01:43:43;16.57;;;5.80;;
71116;SDS011;58775;46.992;9.518;2024-01-11T01:45:44;21.63;;;7.45;;
71116;SDS011;58775;46.992;9.518;2024-01-11T01:47:45;20.93;;;7.30;;
71116;SDS011;58775;46.992;9.518;2024-01-11T01:49:46;20.80;;;6.78;;
71116;SDS011;58775;46.992;9.518;2024-01-11T01:51:49;19.45;;;7.03;;
71116;SDS011;58775;46.992;9.518;2024-01-11T01:53:51;23.35;;;8.02;;
71116;SDS011;58775;46.992;9.518;2024-01-11T01:55:54;21.63;;;7.33;;
71116;SDS011;58775;46.992;9.518;2024-01-11T01:57:57;23.13;;;6.95;;
71116;SDS011;58775;46.992;9.518;2024-01-11T02:00:00;20.38;;;7.18;;
71116;SDS011;58775;46.992;9.518;2024-01-11T02:02:01;28.15;;;8.45;;
71116;SDS011;58775;46.992;9.518;2024-01-11T02:04:02;17.45;;;7.38;;
71116;SDS011;58775;46.992;9.518;2024-01-11T02:06:04;25.58;;;8.90;;
71116;SDS011;58775;46.992;9.518;2024-01-11T02:08:06;26.02;;;8.40;;
71116;SDS011;58775;46.992;9.518;2024-01-11T02:10:10;25.48;;;8.68;;
71116;SDS011;58775;46.992;9.518;2024-01-11T02:12:11;24.03;;;7.93;;
71116;SDS011;58775;46.992;9.518;2024-01-11T02:14:13;22.13;;;8.18;;
71116;SDS011;58775;46.992;9.518;2024-01-11T02:16:14;32.30;;;10.30;;
71116;SDS011;58775;46.992;9.518;2024-01-11T02:18:15;24.83;;;8.27;;
71116;SDS011;58775;46.992;9.518;2024-01-11T02:20:17;29.58;;;9.50;;
71116;SDS011;58775;46.992;9.518;2024-01-11T02:22:40;34.55;;;10.85;;
71116;SDS011;58775;46.992;9.518;2024-01-11T02:24:40;31.00;;;10.48;;
71116;SDS011;58775;46.992;9.518;2024-01-11T02:27:03;29.40;;;9.67;;
71116;SDS011;58775;46.992;9.518;2024-01-11T02:29:04;29.35;;;9.57;;
71116;SDS011;58775;46.992;9.518;2024-01-11T02:31:04;32.63;;;11.45;;
71116;SDS011;58775;46.992;9.518;2024-01-11T02:33:06;29.38;;;10.07;;
71116;SDS011;58775;46.992;9.518;2024-01-11T02:35:07;32.73;;;11.73;;
71116;SDS011;58775;46.992;9.518;2024-01-11T02:37:08;39.97;;;13.45;;
71116;SDS011;58775;46.992;9.518;2024-01-11T02:39:09;41.90;;;11.68;;
71116;SDS011;58775;46.992;9.518;2024-01-11T02:41:11;36.30;;;12.88;;
71116;SDS011;58775;46.992;9.518;2024-01-11T02:43:12;36.40;;;11.70;;
71116;SDS011;58775;46.992;9.518;2024-01-11T02:45:13;43.58;;;13.70;;
71116;SDS011;58775;46.992;9.518;2024-01-11T02:47:16;35.83;;;10.98;;
71116;SDS011;58775;46.992;9.518;2024-01-11T02:49:16;37.07;;;12.93;;
71116;SDS011;58775;46.992;9.518;2024-01-11T02:51:17;36.63;;;11.05;;
71116;SDS011;58775;46.992;9.518;2024-01-11T02:53:18;40.85;;;12.25;;
71116;SDS011;58775;46.992;9.518;2024-01-11T02:55:19;32.30;;;11.17;;
71116;SDS011;58775;46.992;9.518;2024-01-11T02:57:20;34.50;;;11.60;;
71116;SDS011;58775;46.992;9.518;2024-01-11T02:59:21;29.67;;;11.13;;
71116;SDS011;58775;46.992;9.518;2024-01-11T03:01:21;36.38;;;11.20;;
71116;SDS011;58775;46.992;9.518;2024-01-11T03:03:22;31.98;;;10.48;;
71116;SDS011;58775;46.992;9.518;2024-01-11T03:05:23;28.47;;;11.00;;
71116;SDS011;58775;46.992;9.518;2024-01-11T03:07:24;32.97;;;11.65;;
71116;SDS011;58775;46.992;9.518;2024-01-11T03:09:25;35.47;;;12.03;;
71116;SDS011;58775;46.992;9.518;2024-01-11T03:11:25;30.30;;;10.55;;
71116;SDS011;58775;46.992;9.518;2024-01-11T03:13:26;30.10;;;10.38;;
71116;SDS011;58775;46.992;9.518;2024-01-11T03:15:27;31.47;;;11.30;;
71116;SDS011;58775;46.992;9.518;2024-01-11T03:17:28;32.90;;;10.65;;
71116;SDS011;58775;46.992;9.518;2024-01-11T03:19:28;30.27;;;10.67;;
71116;SDS011;58775;46.992;9.518;2024-01-11T03:21:29;31.98;;;11.00;;
71116;SDS011;58775;46.992;9.518;2024-01-11T03:23:30;30.00;;;10.00;;
71116;SDS011;58775;46.992;9.518;2024-01-11T03:25:31;27.30;;;9.55;;
71116;SDS011;58775;46.992;9.518;2024-01-11T03:27:32;27.73;;;10.77;;
71116;SDS011;58775;46.992;9.518;2024-01-11T03:29:32;25.38;;;10.27;;
71116;SDS011;58775;46.992;9.518;2024-01-11T03:31:33;32.25;;;9.93;;
71116;SDS011;58775;46.992;9.518;2024-01-11T03:33:34;30.50;;;10.87;;
71116;SDS011;58775;46.992;9.518;2024-01-11T03:35:35;27.13;;;9.43;;
71116;SDS011;58775;46.992;9.518;2024-01-11T03:37:39;30.05;;;10.88;;
71116;SDS011;58775;46.992;9.518;2024-01-11T03:39:40;33.50;;;10.60;;
71116;SDS011;58775;46.992;9.518;2024-01-11T03:41:46;26.58;;;9.10;;
71116;SDS011;58775;46.992;9.518;2024-01-11T03:43:47;30.27;;;9.73;;
71116;SDS011;58775;46.992;9.518;2024-01-11T03:45:48;26.47;;;9.53;;
71116;SDS011;58775;46.992;9.518;2024-01-11T03:47:49;29.88;;;9.23;;
71116;SDS011;58775;46.992;9.518;2024-01-11T03:49:49;31.17;;;9.37;;
71116;SDS011;58775;46.992;9.518;2024-01-11T03:51:50;29.73;;;9.85;;
71116;SDS011;58775;46.992;9.518;2024-01-11T03:53:51;22.23;;;7.77;;
71116;SDS011;58775;46.992;9.518;2024-01-11T03:55:53;27.10;;;9.80;;
71116;SDS011;58775;46.992;9.518;2024-01-11T03:57:54;27.52;;;8.70;;
71116;SDS011;58775;46.992;9.518;2024-01-11T03:59:54;27.67;;;9.40;;
71116;SDS011;58775;46.992;9.518;2024-01-11T04:01:57;26.65;;;8.68;;
71116;SDS011;58775;46.992;9.518;2024-01-11T04:03:59;25.50;;;8.90;;
71116;SDS011;58775;46.992;9.518;2024-01-11T04:06:00;22.50;;;8.47;;
71116;SDS011;58775;46.992;9.518;2024-01-11T04:08:03;26.60;;;9.20;;
71116;SDS011;58775;46.992;9.518;2024-01-11T04:10:05;25.48;;;9.80;;
71116;SDS011;58775;46.992;9.518;2024-01-11T04:12:07;23.00;;;8.63;;
71116;SDS011;58775;46.992;9.518;2024-01-11T04:14:08;29.83;;;8.18;;
71116;SDS011;58775;46.992;9.518;2024-01-11T04:16:08;24.65;;;8.75;;
71116;SDS011;58775;46.992;9.518;2024-01-11T04:18:09;25.13;;;7.47;;
71116;SDS011;58775;46.992;9.518;2024-01-11T04:20:10;32.17;;;9.25;;
71116;SDS011;58775;46.992;9.518;2024-01-11T04:22:11;23.92;;;8.30;;
71116;SDS011;58775;46.992;9.518;2024-01-11T04:24:12;27.70;;;8.37;;
71116;SDS011;58775;46.992;9.518;2024-01-11T04:26:12;24.08;;;8.68;;
71116;SDS011;58775;46.992;9.518;2024-01-11T04:28:13;29.60;;;8.70;;
71116;SDS011;58775;46.992;9.518;2024-01-11T04:30:14;28.02;;;9.35;;
71116;SDS011;58775;46.992;9.518;2024-01-11T04:32:15;24.98;;;8.85;;
71116;SDS011;58775;46.992;9.518;2024-01-11T04:34:16;30.07;;;8.30;;
71116;SDS011;58775;46.992;9.518;2024-01-11T04:36:17;20.27;;;7.15;;
71116;SDS011;58775;46.992;9.518;2024-01-11T04:38:18;21.83;;;6.93;;
71116;SDS011;58775;46.992;9.518;2024-01-11T04:40:18;26.60;;;8.63;;
71116;SDS011;58775;46.992;9.518;2024-01-11T04:42:19;24.02;;;7.65;;
71116;SDS011;58775;46.992;9.518;2024-01-11T04:44:20;22.40;;;7.80;;
71116;SDS011;58775;46.992;9.518;2024-01-11T04:46:21;24.52;;;8.20;;
71116;SDS011;58775;46.992;9.518;2024-01-11T04:48:26;22.35;;;7.68;;
71116;SDS011;58775;46.992;9.518;2024-01-11T04:50:26;23.20;;;7.07;;
71116;SDS011;58775;46.992;9.518;2024-01-11T04:52:27;24.35;;;7.88;;
71116;SDS011;58775;46.992;9.518;2024-01-11T04:54:28;22.43;;;7.67;;
71116;SDS011;58775;46.992;9.518;2024-01-11T04:56:29;23.42;;;8.27;;
71116;SDS011;58775;46.992;9.518;2024-01-11T04:58:30;27.02;;;9.02;;
71116;SDS011;58775;46.992;9.518;2024-01-11T05:00:30;26.77;;;9.95;;
71116;SDS011;58775;46.992;9.518;2024-01-11T05:02:32;26.92;;;9.02;;
71116;SDS011;58775;46.992;9.518;2024-01-11T05:04:32;25.23;;;9.07;;
71116;SDS011;58775;46.992;9.518;2024-01-11T05:06:33;33.53;;;9.23;;
71116;SDS011;58775;46.992;9.518;2024-01-11T05:08:34;34.87;;;10.73;;
71116;SDS011;58775;46.992;9.518;2024-01-11T05:10:35;41.15;;;9.85;;
71116;SDS011;58775;46.992;9.518;2024-01-11T05:12:36;30.58;;;9.38;;
71116;SDS011;58775;46.992;9.518;2024-01-11T05:14:38;27.17;;;8.83;;
71116;SDS011;58775;46.992;9.518;2024-01-11T05:16:39;27.75;;;9.80;;
71116;SDS011;58775;46.992;9.518;2024-01-11T05:18:40;27.48;;;8.43;;
71116;SDS011;58775;46.992;9.518;2024-01-11T05:20:41;26.30;;;8.90;;
71116;SDS011;58775;46.992;9.518;2024-01-11T05:22:42;24.20;;;8.02;;
71116;SDS011;58775;46.992;9.518;2024-01-11T05:24:43;24.57;;;9.47;;
71116;SDS011;58775;46.992;9.518;2024-01-11T05:26:44;30.35;;;9.07;;
71116;SDS011;58775;46.992;9.518;2024-01-11T05:28:46;26.05;;;9.38;;
71116;SDS011;58775;46.992;9.518;2024-01-11T05:30:47;28.25;;;9.10;;
71116;SDS011;58775;46.992;9.518;2024-01-11T05:32:47;29.83;;;10.07;;
71116;SDS011;58775;46.992;9.518;2024-01-11T05:34:48;36.60;;;10.60;;
71116;SDS011;58775;46.992;9.518;2024-01-11T05:36:49;30.90;;;10.52;;
71116;SDS011;58775;46.992;9.518;2024-01-11T05:38:50;28.25;;;9.15;;
71116;SDS011;58775;46.992;9.518;2024-01-11T05:40:50;28.03;;;9.70;;
71116;SDS011;58775;46.992;9.518;2024-01-11T05:42:51;36.38;;;10.55;;
71116;SDS011;58775;46.992;9.518;2024-01-11T05:44:52;32.95;;;10.30;;
71116;SDS011;58775;46.992;9.518;2024-01-11T05:46:53;30.07;;;10.27;;
71116;SDS011;58775;46.992;9.518;2024-01-11T05:48:54;50.67;;;11.50;;
71116;SDS011;58775;46.992;9.518;2024-01-11T05:50:55;25.80;;;8.37;;
71116;SDS011;58775;46.992;9.518;2024-01-11T05:52:56;28.65;;;9.40;;
71116;SDS011;58775;46.992;9.518;2024-01-11T05:54:57;27.55;;;8.63;;
71116;SDS011;58775;46.992;9.518;2024-01-11T05:56:59;24.80;;;8.73;;
71116;SDS011;58775;46.992;9.518;2024-01-11T05:59:00;21.45;;;7.70;;
71116;SDS011;58775;46.992;9.518;2024-01-11T06:01:00;26.90;;;9.15;;
71116;SDS011;58775;46.992;9.518;2024-01-11T06:03:02;25.33;;;8.05;;
71116;SDS011;58775;46.992;9.518;2024-01-11T06:05:03;24.37;;;7.50;;
71116;SDS011;58775;46.992;9.518;2024-01-11T06:07:04;24.90;;;8.38;;
71116;SDS011;58775;46.992;9.518;2024-01-11T06:09:05;22.75;;;8.43;;
71116;SDS011;58775;46.992;9.518;2024-01-11T06:11:06;24.53;;;7.90;;
71116;SDS011;58775;46.992;9.518;2024-01-11T06:13:09;21.33;;;6.93;;
71116;SDS011;58775;46.992;9.518;2024-01-11T06:15:10;27.08;;;7.15;;
71116;SDS011;58775;46.992;9.518;2024-01-11T06:17:11;22.40;;;7.17;;
71116;SDS011;58775;46.992;9.518;2024-01-11T06:19:12;20.05;;;7.43;;
71116;SDS011;58775;46.992;9.518;2024-01-11T06:21:12;20.95;;;7.53;;
71116;SDS011;58775;46.992;9.518;2024-01-11T06:23:15;22.13;;;7.65;;
71116;SDS011;58775;46.992;9.518;2024-01-11T06:25:17;30.77;;;10.30;;
71116;SDS011;58775;46.992;9.518;2024-01-11T06:27:19;34.17;;;10.57;;
71116;SDS011;58775;46.992;9.518;2024-01-11T06:29:19;29.67;;;9.63;;
71116;SDS011;58775;46.992;9.518;2024-01-11T06:31:20;29.58;;;9.55;;
71116;SDS011;58775;46.992;9.518;2024-01-11T06:33:21;30.77;;;9.85;;
71116;SDS011;58775;46.992;9.518;2024-01-11T06:35:22;28.70;;;9.80;;
71116;SDS011;58775;46.992;9.518;2024-01-11T06:37:23;32.08;;;11.45;;
71116;SDS011;58775;46.992;9.518;2024-01-11T06:39:24;30.43;;;10.43;;
71116;SDS011;58775;46.992;9.518;2024-01-11T06:41:25;36.25;;;10.55;;
71116;SDS011;58775;46.992;9.518;2024-01-11T06:43:26;27.23;;;8.40;;
71116;SDS011;58775;46.992;9.518;2024-01-11T06:45:27;22.80;;;7.93;;
71116;SDS011;58775;46.992;9.518;2024-01-11T06:47:31;24.17;;;6.85;;
71116;SDS011;58775;46.992;9.518;2024-01-11T06:49:31;24.20;;;7.55;;
71116;SDS011;58775;46.992;9.518;2024-01-11T06:51:32;20.37;;;7.63;;
71116;SDS011;58775;46.992;9.518;2024-01-11T06:53:33;22.40;;;7.50;;
71116;SDS011;58775;46.992;9.518;2024-01-11T06:55:36;25.52;;;8.85;;
71116;SDS011;58775;46.992;9.518;2024-01-11T06:57:38;24.00;;;7.50;;
71116;SDS011;58775;46.992;9.518;2024-01-11T06:59:39;27.67;;;9.23;;
71116;SDS011;58775;46.992;9.518;2024-01-11T07:01:40;29.20;;;9.15;;
71116;SDS011;58775;46.992;9.518;2024-01-11T07:03:40;23.50;;;8.90;;
71116;SDS011;58775;46.992;9.518;2024-01-11T07:05:41;26.55;;;9.07;;
71116;SDS011;58775;46.992;9.518;2024-01-11T07:07:42;26.27;;;9.10;;
71116;SDS011;58775;46.992;9.518;2024-01-11T07:09:43;29.02;;;8.60;;
71116;SDS011;58775;46.992;9.518;2024-01-11T07:11:44;34.53;;;9.07;;
71116;SDS011;58775;46.992;9.518;2024-01-11T07:13:45;26.45;;;8.70;;
71116;SDS011;58775;46.992;9.518;2024-01-11T07:15:48;31.73;;;9.23;;
71116;SDS011;58775;46.992;9.518;2024-01-11T07:17:49;30.95;;;9.55;;
71116;SDS011;58775;46.992;9.518;2024-01-11T07:19:49;23.53;;;8.03;;
71116;SDS011;58775;46.992;9.518;2024-01-11T07:21:50;25.08;;;8.00;;
71116;SDS011;58775;46.992;9.518;2024-01-11T07:23:51;25.70;;;8.30;;
71116;SDS011;58775;46.992;9.518;2024-01-11T07:25:52;23.85;;;7.93;;
71116;SDS011;58775;46.992;9.518;2024-01-11T07:27:54;23.75;;;8.38;;
71116;SDS011;58775;46.992;9.518;2024-01-11T07:29:55;30.40;;;9.03;;
71116;SDS011;58775;46.992;9.518;2024-01-11T07:31:55;24.75;;;8.52;;
71116;SDS011;58775;46.992;9.518;2024-01-11T07:33:56;30.57;;;8.47;;
71116;SDS011;58775;46.992;9.518;2024-01-11T07:35:57;29.15;;;10.15;;
71116;SDS011;58775;46.992;9.518;2024-01-11T07:37:59;36.15;;;10.90;;
71116;SDS011;58775;46.992;9.518;2024-01-11T07:39:59;30.57;;;9.93;;
71116;SDS011;58775;46.992;9.518;2024-01-11T07:42:00;30.58;;;9.60;;
71116;SDS011;58775;46.992;9.518;2024-01-11T07:44:01;30.50;;;11.00;;
71116;SDS011;58775;46.992;9.518;2024-01-11T07:46:03;32.13;;;10.40;;
71116;SDS011;58775;46.992;9.518;2024-01-11T07:48:05;29.40;;;10.18;;
71116;SDS011;58775;46.992;9.518;2024-01-11T07:50:07;27.33;;;9.45;;
71116;SDS011;58775;46.992;9.518;2024-01-11T07:52:12;27.02;;;9.68;;
71116;SDS011;58775;46.992;9.518;2024-01-11T07:54:13;22.13;;;8.00;;
71116;SDS011;58775;46.992;9.518;2024-01-11T07:56:14;24.25;;;7.88;;
71116;SDS011;58775;46.992;9.518;2024-01-11T07:58:15;25.38;;;8.25;;
71116;SDS011;58775;46.992;9.518;2024-01-11T08:00:16;27.03;;;8.43;;
71116;SDS011;58775;46.992;9.518;2024-01-11T08:02:17;22.98;;;8.55;;
71116;SDS011;58775;46.992;9.518;2024-01-11T08:04:17;21.73;;;7.32;;
71116;SDS011;58775;46.992;9.518;2024-01-11T08:06:18;29.83;;;8.50;;
71116;SDS011;58775;46.992;9.518;2024-01-11T08:08:19;30.20;;;8.50;;
71116;SDS011;58775;46.992;9.518;2024-01-11T08:10:20;23.37;;;7.53;;
71116;SDS011;58775;46.992;9.518;2024-01-11T08:12:20;29.05;;;7.93;;
71116;SDS011;58775;46.992;9.518;2024-01-11T08:14:21;24.90;;;7.97;;
71116;SDS011;58775;46.992;9.518;2024-01-11T08:16:22;25.20;;;9.02;;
71116;SDS011;58775;46.992;9.518;2024-01-11T08:18:23;23.13;;;7.35;;
71116;SDS011;58775;46.992;9.518;2024-01-11T08:20:24;24.57;;;8.23;;
71116;SDS011;58775;46.992;9.518;2024-01-11T08:22:25;25.70;;;9.55;;
71116;SDS011;58775;46.992;9.518;2024-01-11T08:24:25;20.63;;;6.82;;
71116;SDS011;58775;46.992;9.518;2024-01-11T08:26:26;21.10;;;7.95;;
71116;SDS011;58775;46.992;9.518;2024-01-11T08:28:27;25.13;;;7.63;;
71116;SDS011;58775;46.992;9.518;2024-01-11T08:30:28;21.90;;;7.38;;
71116;SDS011;58775;46.992;9.518;2024-01-11T08:32:28;22.27;;;7.40;;
71116;SDS011;58775;46.992;9.518;2024-01-11T08:34:29;27.40;;;8.77;;
71116;SDS011;58775;46.992;9.518;2024-01-11T08:36:34;24.00;;;7.63;;
71116;SDS011;58775;46.992;9.518;2024-01-11T08:38:35;27.05;;;8.40;;
71116;SDS011;58775;46.992;9.518;2024-01-11T08:40:36;24.60;;;8.23;;
71116;SDS011;58775;46.992;9.518;2024-01-11T08:42:37;23.63;;;7.93;;
71116;SDS011;58775;46.992;9.518;2024-01-11T08:44:41;23.40;;;7.30;;
71116;SDS011;58775;46.992;9.518;2024-01-11T08:46:42;22.58;;;8.10;;
71116;SDS011;58775;46.992;9.518;2024-01-11T08:48:44;23.17;;;7.73;;
71116;SDS011;58775;46.992;9.518;2024-01-11T08:50:46;22.92;;;8.18;;
71116;SDS011;58775;46.992;9.518;2024-01-11T08:52:47;21.48;;;7.88;;
71116;SDS011;58775;46.992;9.518;2024-01-11T08:54:48;19.83;;;7.53;;
71116;SDS011;58775;46.992;9.518;2024-01-11T08:56:51;26.13;;;8.05;;
71116;SDS011;58775;46.992;9.518;2024-01-11T08:58:53;25.10;;;7.87;;
71116;SDS011;58775;46.992;9.518;2024-01-11T09:00:54;26.52;;;8.23;;
71116;SDS011;58775;46.992;9.518;2024-01-11T09:02:54;23.48;;;7.90;;
71116;SDS011;58775;46.992;9.518;2024-01-11T09:04:55;22.47;;;7.50;;
71116;SDS011;58775;46.992;9.518;2024-01-11T09:06:56;24.30;;;8.48;;
71116;SDS011;58775;46.992;9.518;2024-01-11T09:08:57;23.23;;;7.72;;
71116;SDS011;58775;46.992;9.518;2024-01-11T09:10:58;27.13;;;9.50;;
71116;SDS011;58775;46.992;9.518;2024-01-11T09:13:00;30.13;;;9.73;;
71116;SDS011;58775;46.992;9.518;2024-01-11T09:15:00;22.50;;;8.00;;
71116;SDS011;58775;46.992;9.518;2024-01-11T09:17:01;25.37;;;8.13;;
71116;SDS011;58775;46.992;9.518;2024-01-11T09:19:02;20.73;;;8.35;;
71116;SDS011;58775;46.992;9.518;2024-01-11T09:21:03;28.97;;;8.77;;
71116;SDS011;58775;46.992;9.518;2024-01-11T09:23:05;23.60;;;7.70;;
71116;SDS011;58775;46.992;9.518;2024-01-11T09:25:08;20.63;;;7.43;;
71116;SDS011;58775;46.992;9.518;2024-01-11T09:27:09;24.53;;;8.63;;
71116;SDS011;58775;46.992;9.518;2024-01-11T09:29:10;27.90;;;8.48;;
71116;SDS011;58775;46.992;9.518;2024-01-11T09:31:11;20.73;;;8.52;;
71116;SDS011;58775;46.992;9.518;2024-01-11T09:33:12;28.13;;;8.43;;
71116;SDS011;58775;46.992;9.518;2024-01-11T09:35:13;23.10;;;7.55;;
71116;SDS011;58775;46.992;9.518;2024-01-11T09:37:14;25.10;;;8.30;;
71116;SDS011;58775;46.992;9.518;2024-01-11T09:39:16;21.00;;;6.88;;
71116;SDS011;58775;46.992;9.518;2024-01-11T09:41:18;21.42;;;7.50;;
71116;SDS011;58775;46.992;9.518;2024-01-11T09:43:19;23.17;;;7.30;;
71116;SDS011;58775;46.992;9.518;2024-01-11T09:45:21;20.10;;;7.45;;
71116;SDS011;58775;46.992;9.518;2024-01-11T09:47:22;23.00;;;7.53;;
71116;SDS011;58775;46.992;9.518;2024-01-11T09:49:24;22.13;;;7.20;;
71116;SDS011;58775;46.992;9.518;2024-01-11T09:51:25;18.83;;;7.40;;
71116;SDS011;58775;46.992;9.518;2024-01-11T09:53:28;17.77;;;5.97;;
71116;SDS011;58775;46.992;9.518;2024-01-11T09:55:29;21.05;;;7.65;;
71116;SDS011;58775;46.992;9.518;2024-01-11T09:57:31;21.23;;;7.47;;
71116;SDS011;58775;46.992;9.518;2024-01-11T09:59:36;19.17;;;6.75;;
71116;SDS011;58775;46.992;9.518;2024-01-11T10:01:43;20.17;;;6.93;;
71116;SDS011;58775;46.992;9.518;2024-01-11T10:03:48;19.60;;;6.50;;
71116;SDS011;58775;46.992;9.518;2024-01-11T10:05:54;24.77;;;6.25;;
71116;SDS011;58775;46.992;9.518;2024-01-11T10:08:01;20.60;;;6.30;;
71116;SDS011;58775;46.992;9.518;2024-01-11T10:10:07;20.00;;;6.95;;
71116;SDS011;58775;46.992;9.518;2024-01-11T10:12:10;20.13;;;6.32;;
71116;SDS011;58775;46.992;9.518;2024-01-11T10:14:14;21.45;;;6.65;;
71116;SDS011;58775;46.992;9.518;2024-01-11T10:16:15;21.15;;;7.35;;
71116;SDS011;58775;46.992;9.518;2024-01-11T10:18:16;21.00;;;6.93;;
71116;SDS011;58775;46.992;9.518;2024-01-11T10:20:17;18.15;;;6.72;;
71116;SDS011;58775;46.992;9.518;2024-01-11T10:22:23;22.20;;;6.95;;
71116;SDS011;58775;46.992;9.518;2024-01-11T10:24:24;19.00;;;6.80;;
71116;SDS011;58775;46.992;9.518;2024-01-11T10:26:28;19.13;;;5.97;;
71116;SDS011;58775;46.992;9.518;2024-01-11T10:28:30;23.80;;;6.85;;
71116;SDS011;58775;46.992;9.518;2024-01-11T10:30:32;20.60;;;6.13;;
71116;SDS011;58775;46.992;9.518;2024-01-11T10:32:34;20.17;;;5.85;;
71116;SDS011;58775;46.992;9.518;2024-01-11T10:34:35;21.17;;;6.73;;
71116;SDS011;58775;46.992;9.518;2024-01-11T10:36:40;17.80;;;6.18;;
71116;SDS011;58775;46.992;9.518;2024-01-11T10:38:41;19.83;;;6.20;;
71116;SDS011;58775;46.992;9.518;2024-01-11T10:40:43;19.15;;;6.32;;
71116;SDS011;58775;46.992;9.518;2024-01-11T10:42:45;21.10;;;6.93;;
71116;SDS011;58775;46.992;9.518;2024-01-11T10:44:52;16.35;;;5.93;;
71116;SDS011;58775;46.992;9.518;2024-01-11T10:46:58;17.38;;;6.47;;
71116;SDS011;58775;46.992;9.518;2024-01-11T10:48:59;17.77;;;5.75;;
71116;SDS011;58775;46.992;9.518;2024-01-11T10:51:07;17.05;;;5.57;;
71116;SDS011;58775;46.992;9.518;2024-01-11T10:55:38;17.73;;;5.10;;
71116;SDS011;58775;46.992;9.518;2024-01-11T10:57:41;17.08;;;5.68;;
71116;SDS011;58775;46.992;9.518;2024-01-11T10:59:42;13.88;;;4.85;;
71116;SDS011;58775;46.992;9.518;2024-01-11T11:01:44;17.15;;;4.72;;
71116;SDS011;58775;46.992;9.518;2024-01-11T11:03:46;22.50;;;6.30;;
71116;SDS011;58775;46.992;9.518;2024-01-11T11:05:48;15.27;;;5.38;;
71116;SDS011;58775;46.992;9.518;2024-01-11T11:07:54;15.32;;;5.38;;
71116;SDS011;58775;46.992;9.518;2024-01-11T11:09:56;17.42;;;5.65;;
71116;SDS011;58775;46.992;9.518;2024-01-11T11:12:00;15.52;;;4.72;;
71116;SDS011;58775;46.992;9.518;2024-01-11T11:14:01;18.63;;;6.30;;
71116;SDS011;58775;46.992;9.518;2024-01-11T11:16:02;17.48;;;5.18;;
71116;SDS011;58775;46.992;9.518;2024-01-11T11:18:06;19.13;;;6.05;;
71116;SDS011;58775;46.992;9.518;2024-01-11T11:20:07;14.70;;;5.10;;
71116;SDS011;58775;46.992;9.518;2024-01-11T11:22:09;18.77;;;6.05;;
71116;SDS011;58775;46.992;9.518;2024-01-11T11:24:16;15.18;;;4.95;;
71116;SDS011;58775;46.992;9.518;2024-01-11T11:26:19;16.35;;;6.13;;
71116;SDS011;58775;46.992;9.518;2024-01-11T11:28:20;18.60;;;6.03;;
71116;SDS011;58775;46.992;9.518;2024-01-11T11:30:22;19.52;;;5.78;;
71116;SDS011;58775;46.992;9.518;2024-01-11T11:32:38;20.33;;;6.03;;
71116;SDS011;58775;46.992;9.518;2024-01-11T11:34:44;19.65;;;6.72;;
71116;SDS011;58775;46.992;9.518;2024-01-11T11:36:49;22.20;;;5.93;;
71116;SDS011;58775;46.992;9.518;2024-01-11T11:38:55;21.08;;;6.50;;
71116;SDS011;58775;46.992;9.518;2024-01-11T11:41:01;17.70;;;6.75;;
71116;SDS011;58775;46.992;9.518;2024-01-11T11:43:01;17.85;;;6.20;;
71116;SDS011;58775;46.992;9.518;2024-01-11T11:45:06;22.60;;;6.80;;
71116;SDS011;58775;46.992;9.518;2024-01-11T11:47:20;19.67;;;7.15;;
71116;SDS011;58775;46.992;9.518;2024-01-11T11:49:47;20.00;;;6.53;;
71116;SDS011;58775;46.992;9.518;2024-01-11T11:52:15;18.42;;;6.40;;
71116;SDS011;58775;46.992;9.518;2024-01-11T11:54:17;25.95;;;7.05;;
71116;SDS011;58775;46.992;9.518;2024-01-11T11:56:19;22.70;;;7.33;;
71116;SDS011;58775;46.992;9.518;2024-01-11T11:58:21;20.27;;;6.00;;
71116;SDS011;58775;46.992;9.518;2024-01-11T12:00:23;21.98;;;6.65;;
71116;SDS011;58775;46.992;9.518;2024-01-11T12:02:27;27.05;;;6.65;;
71116;SDS011;58775;46.992;9.518;2024-01-11T12:04:28;25.25;;;7.50;;